sensor_id;sensor_type;location;lat;lon;timestamp;P1;durP1;ratioP1;P2;durP2;ratioP2
8279;SDS011;8335;42.646;23.380;2023-02-13T00:00:44;87.97;;;39.40;;
8279;SDS011;8335;42.646;23.380;2023-02-13T00:03:11;90.93;;;40.87;;
8279;SDS011;8335;42.646;23.380;2023-02-13T00:05:38;94.27;;;40.03;;
8279;SDS011;8335;42.646;23.380;2023-02-13T00:08:05;87.43;;;38.93;;
8279;SDS011;8335;42.646;23.380;2023-02-13T00:10:32;93.07;;;41.10;;
8279;SDS011;8335;42.646;23.380;2023-02-13T00:12:59;88.37;;;39.03;;
8279;SDS011;8335;42.646;23.380;2023-02-13T00:15:27;85.83;;;39.83;;
8279;SDS011;8335;42.646;23.380;2023-02-13T00:17:53;92.37;;;38.80;;
8279;SDS011;8335;42.646;23.380;2023-02-13T00:20:20;85.93;;;39.83;;
8279;SDS011;8335;42.646;23.380;2023-02-13T00:22:47;88.83;;;38.47;;
8279;SDS011;8335;42.646;23.380;2023-02-13T00:25:14;84.77;;;36.77;;
8279;SDS011;8335;42.646;23.380;2023-02-13T00:27:41;90.73;;;39.63;;
8279;SDS011;8335;42.646;23.380;2023-02-13T00:30:08;82.00;;;38.17;;
8279;SDS011;8335;42.646;23.380;2023-02-13T00:32:36;83.37;;;36.90;;
8279;SDS011;8335;42.646;23.380;2023-02-13T00:35:03;89.90;;;40.03;;
8279;SDS011;8335;42.646;23.380;2023-02-13T00:37:30;85.03;;;38.60;;
8279;SDS011;8335;42.646;23.380;2023-02-13T00:39:58;86.83;;;38.13;;
8279;SDS011;8335;42.646;23.380;2023-02-13T00:42:25;86.53;;;37.90;;
8279;SDS011;8335;42.646;23.380;2023-02-13T00:44:51;84.50;;;38.23;;
8279;SDS011;8335;42.646;23.380;2023-02-13T00:47:19;89.00;;;38.23;;
8279;SDS011;8335;42.646;23.380;2023-02-13T00:49:47;91.07;;;39.67;;
8279;SDS011;8335;42.646;23.380;2023-02-13T00:52:14;78.27;;;38.20;;
8279;SDS011;8335;42.646;23.380;2023-02-13T00:54:41;88.70;;;39.80;;
8279;SDS011;8335;42.646;23.380;2023-02-13T00:57:07;83.07;;;35.37;;
8279;SDS011;8335;42.646;23.380;2023-02-13T00:59:34;92.13;;;39.43;;
8279;SDS011;8335;42.646;23.380;2023-02-13T01:02:01;95.10;;;39.90;;
8279;SDS011;8335;42.646;23.380;2023-02-13T01:04:28;83.13;;;37.60;;
8279;SDS011;8335;42.646;23.380;2023-02-13T01:06:56;91.57;;;38.10;;
8279;SDS011;8335;42.646;23.380;2023-02-13T01:09:23;86.00;;;37.00;;
8279;SDS011;8335;42.646;23.380;2023-02-13T01:11:50;84.40;;;37.40;;
8279;SDS011;8335;42.646;23.380;2023-02-13T01:14:17;81.03;;;36.13;;
8279;SDS011;8335;42.646;23.380;2023-02-13T01:16:44;73.80;;;35.13;;
8279;SDS011;8335;42.646;23.380;2023-02-13T01:19:10;78.13;;;37.53;;
8279;SDS011;8335;42.646;23.380;2023-02-13T01:21:37;90.60;;;38.10;;
8279;SDS011;8335;42.646;23.380;2023-02-13T01:24:05;86.37;;;37.97;;
8279;SDS011;8335;42.646;23.380;2023-02-13T01:26:32;81.47;;;38.17;;
8279;SDS011;8335;42.646;23.380;2023-02-13T01:28:59;88.20;;;37.23;;
8279;SDS011;8335;42.646;23.380;2023-02-13T01:31:26;86.60;;;36.53;;
8279;SDS011;8335;42.646;23.380;2023-02-13T01:33:54;79.40;;;35.53;;
8279;SDS011;8335;42.646;23.380;2023-02-13T01:36:22;76.27;;;36.40;;
8279;SDS011;8335;42.646;23.380;2023-02-13T01:38:51;78.17;;;35.60;;
8279;SDS011;8335;42.646;23.380;2023-02-13T01:41:21;78.50;;;36.03;;
8279;SDS011;8335;42.646;23.380;2023-02-13T01:43:49;76.33;;;34.90;;
8279;SDS011;8335;42.646;23.380;2023-02-13T01:46:20;75.07;;;35.30;;
8279;SDS011;8335;42.646;23.380;2023-02-13T01:48:50;80.10;;;37.03;;
8279;SDS011;8335;42.646;23.380;2023-02-13T01:51:21;81.07;;;34.97;;
8279;SDS011;8335;42.646;23.380;2023-02-13T01:53:52;77.20;;;34.17;;
8279;SDS011;8335;42.646;23.380;2023-02-13T01:56:24;77.43;;;36.00;;
8279;SDS011;8335;42.646;23.380;2023-02-13T01:58:56;77.43;;;34.53;;
8279;SDS011;8335;42.646;23.380;2023-02-13T02:01:26;75.53;;;36.07;;
8279;SDS011;8335;42.646;23.380;2023-02-13T02:03:54;79.73;;;35.83;;
8279;SDS011;8335;42.646;23.380;2023-02-13T02:06:24;80.77;;;35.77;;
8279;SDS011;8335;42.646;23.380;2023-02-13T02:08:54;84.53;;;37.07;;
8279;SDS011;8335;42.646;23.380;2023-02-13T02:11:27;84.03;;;36.23;;
8279;SDS011;8335;42.646;23.380;2023-02-13T02:14:00;76.77;;;34.73;;
8279;SDS011;8335;42.646;23.380;2023-02-13T02:16:27;79.70;;;36.07;;
8279;SDS011;8335;42.646;23.380;2023-02-13T02:18:55;75.97;;;32.83;;
8279;SDS011;8335;42.646;23.380;2023-02-13T02:30:31;76.37;;;35.73;;
8279;SDS011;8335;42.646;23.380;2023-02-13T02:33:22;77.40;;;34.80;;
8279;SDS011;8335;42.646;23.380;2023-02-13T02:35:59;74.73;;;34.07;;
8279;SDS011;8335;42.646;23.380;2023-02-13T02:38:42;81.13;;;37.37;;
8279;SDS011;8335;42.646;23.380;2023-02-13T02:41:22;73.97;;;35.40;;
8279;SDS011;8335;42.646;23.380;2023-02-13T02:44:13;82.17;;;34.80;;
8279;SDS011;8335;42.646;23.380;2023-02-13T02:46:52;73.00;;;35.20;;
8279;SDS011;8335;42.646;23.380;2023-02-13T02:49:47;76.23;;;34.43;;
8279;SDS011;8335;42.646;23.380;2023-02-13T02:52:28;88.97;;;36.40;;
8279;SDS011;8335;42.646;23.380;2023-02-13T02:55:06;79.37;;;35.37;;
8279;SDS011;8335;42.646;23.380;2023-02-13T02:57:41;81.53;;;36.17;;
8279;SDS011;8335;42.646;23.380;2023-02-13T03:00:28;73.13;;;33.77;;
8279;SDS011;8335;42.646;23.380;2023-02-13T03:03:17;83.37;;;35.00;;
8279;SDS011;8335;42.646;23.380;2023-02-13T03:06:08;77.90;;;34.73;;
8279;SDS011;8335;42.646;23.380;2023-02-13T03:08:41;83.90;;;36.13;;
8279;SDS011;8335;42.646;23.380;2023-02-13T03:11:27;75.17;;;35.70;;
8279;SDS011;8335;42.646;23.380;2023-02-13T03:14:12;85.00;;;35.10;;
8279;SDS011;8335;42.646;23.380;2023-02-13T03:16:43;85.43;;;35.57;;
8279;SDS011;8335;42.646;23.380;2023-02-13T03:19:33;85.30;;;36.30;;
8279;SDS011;8335;42.646;23.380;2023-02-13T03:22:29;81.60;;;35.00;;
8279;SDS011;8335;42.646;23.380;2023-02-13T03:25:10;84.70;;;36.00;;
8279;SDS011;8335;42.646;23.380;2023-02-13T03:27:44;78.93;;;35.80;;
8279;SDS011;8335;42.646;23.380;2023-02-13T03:30:52;76.87;;;34.93;;
8279;SDS011;8335;42.646;23.380;2023-02-13T03:33:29;79.50;;;36.13;;
8279;SDS011;8335;42.646;23.380;2023-02-13T03:36:12;84.47;;;35.50;;
8279;SDS011;8335;42.646;23.380;2023-02-13T03:39:07;77.57;;;34.27;;
8279;SDS011;8335;42.646;23.380;2023-02-13T03:41:37;81.70;;;35.23;;
8279;SDS011;8335;42.646;23.380;2023-02-13T03:44:10;75.60;;;33.73;;
8279;SDS011;8335;42.646;23.380;2023-02-13T03:46:42;77.10;;;35.10;;
8279;SDS011;8335;42.646;23.380;2023-02-13T03:49:15;76.80;;;34.80;;
8279;SDS011;8335;42.646;23.380;2023-02-13T03:52:05;78.03;;;32.20;;
8279;SDS011;8335;42.646;23.380;2023-02-13T03:54:39;74.20;;;34.30;;
8279;SDS011;8335;42.646;23.380;2023-02-13T03:57:28;73.27;;;32.93;;
8279;SDS011;8335;42.646;23.380;2023-02-13T04:00:16;67.73;;;31.97;;
8279;SDS011;8335;42.646;23.380;2023-02-13T04:02:50;72.43;;;33.40;;
8279;SDS011;8335;42.646;23.380;2023-02-13T04:05:23;67.07;;;31.30;;
8279;SDS011;8335;42.646;23.380;2023-02-13T04:07:55;71.83;;;31.90;;
8279;SDS011;8335;42.646;23.380;2023-02-13T04:10:23;77.60;;;34.43;;
8279;SDS011;8335;42.646;23.380;2023-02-13T04:12:56;72.97;;;33.03;;
8279;SDS011;8335;42.646;23.380;2023-02-13T04:15:29;69.97;;;31.07;;
8279;SDS011;8335;42.646;23.380;2023-02-13T04:18:01;72.00;;;33.83;;
8279;SDS011;8335;42.646;23.380;2023-02-13T04:20:34;70.97;;;33.33;;
8279;SDS011;8335;42.646;23.380;2023-02-13T04:23:04;70.40;;;31.90;;
8279;SDS011;8335;42.646;23.380;2023-02-13T04:25:34;69.50;;;31.30;;
8279;SDS011;8335;42.646;23.380;2023-02-13T04:28:04;69.60;;;33.60;;
8279;SDS011;8335;42.646;23.380;2023-02-13T04:30:31;68.70;;;31.97;;
8279;SDS011;8335;42.646;23.380;2023-02-13T04:32:58;72.37;;;32.80;;
8279;SDS011;8335;42.646;23.380;2023-02-13T04:35:25;67.47;;;32.13;;
8279;SDS011;8335;42.646;23.380;2023-02-13T04:37:52;68.87;;;31.90;;
8279;SDS011;8335;42.646;23.380;2023-02-13T04:40:19;73.93;;;33.67;;
8279;SDS011;8335;42.646;23.380;2023-02-13T04:42:47;71.90;;;32.40;;
8279;SDS011;8335;42.646;23.380;2023-02-13T04:45:15;70.80;;;33.77;;
8279;SDS011;8335;42.646;23.380;2023-02-13T04:47:42;77.73;;;35.13;;
8279;SDS011;8335;42.646;23.380;2023-02-13T04:50:14;66.03;;;31.77;;
8279;SDS011;8335;42.646;23.380;2023-02-13T04:52:41;67.17;;;30.57;;
8279;SDS011;8335;42.646;23.380;2023-02-13T04:55:08;65.83;;;31.43;;
8279;SDS011;8335;42.646;23.380;2023-02-13T04:57:35;69.20;;;31.77;;
8279;SDS011;8335;42.646;23.380;2023-02-13T05:00:03;73.47;;;33.37;;
8279;SDS011;8335;42.646;23.380;2023-02-13T05:02:30;69.47;;;34.57;;
8279;SDS011;8335;42.646;23.380;2023-02-13T05:04:57;74.80;;;34.27;;
8279;SDS011;8335;42.646;23.380;2023-02-13T05:07:24;56.20;;;27.57;;
8279;SDS011;8335;42.646;23.380;2023-02-13T05:09:51;62.43;;;29.67;;
8279;SDS011;8335;42.646;23.380;2023-02-13T05:12:18;56.30;;;27.07;;
8279;SDS011;8335;42.646;23.380;2023-02-13T05:14:44;56.87;;;27.27;;
8279;SDS011;8335;42.646;23.380;2023-02-13T05:17:12;58.73;;;28.13;;
8279;SDS011;8335;42.646;23.380;2023-02-13T05:19:39;62.63;;;28.57;;
8279;SDS011;8335;42.646;23.380;2023-02-13T05:22:07;59.80;;;30.03;;
8279;SDS011;8335;42.646;23.380;2023-02-13T05:24:52;55.93;;;26.17;;
8279;SDS011;8335;42.646;23.380;2023-02-13T05:27:18;57.23;;;26.23;;
8279;SDS011;8335;42.646;23.380;2023-02-13T05:29:45;53.80;;;24.43;;
8279;SDS011;8335;42.646;23.380;2023-02-13T05:32:12;53.40;;;25.63;;
8279;SDS011;8335;42.646;23.380;2023-02-13T05:34:39;48.43;;;24.60;;
8279;SDS011;8335;42.646;23.380;2023-02-13T05:37:06;49.80;;;25.60;;
8279;SDS011;8335;42.646;23.380;2023-02-13T05:39:32;53.37;;;26.70;;
8279;SDS011;8335;42.646;23.380;2023-02-13T05:41:59;49.53;;;25.43;;
8279;SDS011;8335;42.646;23.380;2023-02-13T05:44:28;54.47;;;26.30;;
8279;SDS011;8335;42.646;23.380;2023-02-13T05:46:55;51.40;;;26.07;;
8279;SDS011;8335;42.646;23.380;2023-02-13T05:49:23;53.87;;;26.57;;
8279;SDS011;8335;42.646;23.380;2023-02-13T05:51:50;55.67;;;26.10;;
8279;SDS011;8335;42.646;23.380;2023-02-13T05:54:17;51.50;;;25.43;;
8279;SDS011;8335;42.646;23.380;2023-02-13T05:56:44;54.03;;;26.83;;
8279;SDS011;8335;42.646;23.380;2023-02-13T05:59:11;52.13;;;26.73;;
8279;SDS011;8335;42.646;23.380;2023-02-13T06:01:38;60.60;;;26.87;;
8279;SDS011;8335;42.646;23.380;2023-02-13T06:04:05;53.87;;;25.70;;
8279;SDS011;8335;42.646;23.380;2023-02-13T06:06:33;52.43;;;26.87;;
8279;SDS011;8335;42.646;23.380;2023-02-13T06:09:00;53.30;;;26.10;;
8279;SDS011;8335;42.646;23.380;2023-02-13T06:11:27;56.10;;;26.10;;
8279;SDS011;8335;42.646;23.380;2023-02-13T06:13:53;55.17;;;26.67;;
8279;SDS011;8335;42.646;23.380;2023-02-13T06:16:20;55.77;;;27.50;;
8279;SDS011;8335;42.646;23.380;2023-02-13T06:18:47;61.00;;;28.40;;
8279;SDS011;8335;42.646;23.380;2023-02-13T06:21:14;58.57;;;27.73;;
8279;SDS011;8335;42.646;23.380;2023-02-13T06:23:42;53.77;;;26.50;;
8279;SDS011;8335;42.646;23.380;2023-02-13T06:26:09;55.53;;;28.27;;
8279;SDS011;8335;42.646;23.380;2023-02-13T06:28:36;57.37;;;27.17;;
8279;SDS011;8335;42.646;23.380;2023-02-13T06:31:03;53.57;;;27.47;;
8279;SDS011;8335;42.646;23.380;2023-02-13T06:33:30;53.00;;;27.10;;
8279;SDS011;8335;42.646;23.380;2023-02-13T06:35:56;54.17;;;27.17;;
8279;SDS011;8335;42.646;23.380;2023-02-13T06:38:23;54.37;;;26.83;;
8279;SDS011;8335;42.646;23.380;2023-02-13T06:40:51;56.17;;;27.73;;
8279;SDS011;8335;42.646;23.380;2023-02-13T06:43:18;53.73;;;27.10;;
8279;SDS011;8335;42.646;23.380;2023-02-13T06:45:45;58.37;;;28.07;;
8279;SDS011;8335;42.646;23.380;2023-02-13T06:48:12;56.93;;;26.73;;
8279;SDS011;8335;42.646;23.380;2023-02-13T06:50:39;54.43;;;27.60;;
8279;SDS011;8335;42.646;23.380;2023-02-13T06:53:06;55.60;;;27.53;;
8279;SDS011;8335;42.646;23.380;2023-02-13T06:55:32;54.10;;;26.83;;
8279;SDS011;8335;42.646;23.380;2023-02-13T06:58:01;59.57;;;27.27;;
8279;SDS011;8335;42.646;23.380;2023-02-13T07:00:27;57.97;;;27.30;;
8279;SDS011;8335;42.646;23.380;2023-02-13T07:02:59;57.37;;;26.90;;
8279;SDS011;8335;42.646;23.380;2023-02-13T07:05:27;52.37;;;26.73;;
8279;SDS011;8335;42.646;23.380;2023-02-13T07:07:54;57.47;;;28.30;;
8279;SDS011;8335;42.646;23.380;2023-02-13T07:10:20;51.17;;;27.37;;
8279;SDS011;8335;42.646;23.380;2023-02-13T07:12:47;60.07;;;26.00;;
8279;SDS011;8335;42.646;23.380;2023-02-13T07:15:15;58.60;;;27.13;;
8279;SDS011;8335;42.646;23.380;2023-02-13T07:17:42;59.30;;;28.27;;
8279;SDS011;8335;42.646;23.380;2023-02-13T07:20:09;55.20;;;28.90;;
8279;SDS011;8335;42.646;23.380;2023-02-13T07:22:37;59.17;;;29.17;;
8279;SDS011;8335;42.646;23.380;2023-02-13T07:25:04;58.93;;;28.57;;
8279;SDS011;8335;42.646;23.380;2023-02-13T07:27:31;60.87;;;28.83;;
8279;SDS011;8335;42.646;23.380;2023-02-13T07:29:58;58.07;;;28.23;;
8279;SDS011;8335;42.646;23.380;2023-02-13T07:32:26;59.73;;;29.57;;
8279;SDS011;8335;42.646;23.380;2023-02-13T07:34:53;60.07;;;29.33;;
8279;SDS011;8335;42.646;23.380;2023-02-13T07:37:20;66.60;;;32.53;;
8279;SDS011;8335;42.646;23.380;2023-02-13T07:39:46;74.87;;;33.90;;
8279;SDS011;8335;42.646;23.380;2023-02-13T07:42:13;71.73;;;33.90;;
8279;SDS011;8335;42.646;23.380;2023-02-13T07:44:40;72.83;;;35.07;;
8279;SDS011;8335;42.646;23.380;2023-02-13T07:47:07;71.90;;;34.87;;
8279;SDS011;8335;42.646;23.380;2023-02-13T07:49:35;72.37;;;35.43;;
8279;SDS011;8335;42.646;23.380;2023-02-13T07:52:02;69.43;;;36.00;;
8279;SDS011;8335;42.646;23.380;2023-02-13T07:54:29;70.37;;;35.33;;
8279;SDS011;8335;42.646;23.380;2023-02-13T07:56:56;77.93;;;35.27;;
8279;SDS011;8335;42.646;23.380;2023-02-13T07:59:23;71.37;;;35.60;;
8279;SDS011;8335;42.646;23.380;2023-02-13T08:01:50;75.77;;;36.07;;
8279;SDS011;8335;42.646;23.380;2023-02-13T08:04:17;73.60;;;35.53;;
8279;SDS011;8335;42.646;23.380;2023-02-13T08:06:45;72.43;;;34.20;;
8279;SDS011;8335;42.646;23.380;2023-02-13T08:09:16;74.37;;;35.70;;
8279;SDS011;8335;42.646;23.380;2023-02-13T08:12:02;71.23;;;34.53;;
8279;SDS011;8335;42.646;23.380;2023-02-13T08:14:30;70.33;;;34.90;;
8279;SDS011;8335;42.646;23.380;2023-02-13T08:16:57;67.87;;;33.73;;
8279;SDS011;8335;42.646;23.380;2023-02-13T08:19:25;77.10;;;34.30;;
8279;SDS011;8335;42.646;23.380;2023-02-13T08:21:54;65.63;;;32.03;;
8279;SDS011;8335;42.646;23.380;2023-02-13T08:24:20;69.10;;;32.93;;
8279;SDS011;8335;42.646;23.380;2023-02-13T08:26:47;65.70;;;32.13;;
8279;SDS011;8335;42.646;23.380;2023-02-13T08:29:17;65.40;;;32.63;;
8279;SDS011;8335;42.646;23.380;2023-02-13T08:31:44;64.93;;;31.50;;
8279;SDS011;8335;42.646;23.380;2023-02-13T08:34:11;62.93;;;32.60;;
8279;SDS011;8335;42.646;23.380;2023-02-13T08:36:37;65.07;;;32.60;;
8279;SDS011;8335;42.646;23.380;2023-02-13T08:39:07;61.87;;;29.60;;
8279;SDS011;8335;42.646;23.380;2023-02-13T08:41:34;67.10;;;31.30;;
8279;SDS011;8335;42.646;23.380;2023-02-13T08:44:01;68.17;;;33.77;;
8279;SDS011;8335;42.646;23.380;2023-02-13T08:46:28;73.77;;;34.93;;
8279;SDS011;8335;42.646;23.380;2023-02-13T08:48:55;70.80;;;34.87;;
8279;SDS011;8335;42.646;23.380;2023-02-13T08:51:21;74.10;;;35.47;;
8279;SDS011;8335;42.646;23.380;2023-02-13T08:53:49;68.30;;;33.57;;
8279;SDS011;8335;42.646;23.380;2023-02-13T08:56:17;70.87;;;35.43;;
8279;SDS011;8335;42.646;23.380;2023-02-13T08:58:46;75.40;;;36.20;;
8279;SDS011;8335;42.646;23.380;2023-02-13T09:01:13;72.53;;;34.90;;
8279;SDS011;8335;42.646;23.380;2023-02-13T09:03:40;66.60;;;33.57;;
8279;SDS011;8335;42.646;23.380;2023-02-13T09:06:07;66.57;;;33.03;;
8279;SDS011;8335;42.646;23.380;2023-02-13T09:08:34;71.40;;;31.37;;
8279;SDS011;8335;42.646;23.380;2023-02-13T09:11:02;66.70;;;33.03;;
8279;SDS011;8335;42.646;23.380;2023-02-13T09:13:32;66.83;;;32.10;;
8279;SDS011;8335;42.646;23.380;2023-02-13T09:16:01;69.57;;;32.33;;
8279;SDS011;8335;42.646;23.380;2023-02-13T09:18:29;64.53;;;32.20;;
8279;SDS011;8335;42.646;23.380;2023-02-13T09:20:57;65.47;;;32.27;;
8279;SDS011;8335;42.646;23.380;2023-02-13T09:23:25;69.07;;;34.00;;
8279;SDS011;8335;42.646;23.380;2023-02-13T09:25:52;62.60;;;32.00;;
8279;SDS011;8335;42.646;23.380;2023-02-13T09:28:19;68.20;;;32.90;;
8279;SDS011;8335;42.646;23.380;2023-02-13T09:30:47;66.83;;;31.00;;
8279;SDS011;8335;42.646;23.380;2023-02-13T09:33:14;62.40;;;31.50;;
8279;SDS011;8335;42.646;23.380;2023-02-13T09:35:41;67.53;;;31.63;;
8279;SDS011;8335;42.646;23.380;2023-02-13T09:38:09;61.70;;;30.40;;
8279;SDS011;8335;42.646;23.380;2023-02-13T09:40:36;60.90;;;31.00;;
8279;SDS011;8335;42.646;23.380;2023-02-13T09:43:12;63.93;;;30.77;;
8279;SDS011;8335;42.646;23.380;2023-02-13T09:45:41;61.83;;;31.83;;
8279;SDS011;8335;42.646;23.380;2023-02-13T09:48:13;65.07;;;32.40;;
8279;SDS011;8335;42.646;23.380;2023-02-13T09:50:44;59.67;;;30.70;;
8279;SDS011;8335;42.646;23.380;2023-02-13T09:53:15;61.73;;;30.50;;
8279;SDS011;8335;42.646;23.380;2023-02-13T09:55:48;59.53;;;31.13;;
8279;SDS011;8335;42.646;23.380;2023-02-13T09:58:26;67.33;;;32.53;;
8279;SDS011;8335;42.646;23.380;2023-02-13T10:01:05;62.27;;;30.73;;
8279;SDS011;8335;42.646;23.380;2023-02-13T10:03:48;64.33;;;32.70;;
8279;SDS011;8335;42.646;23.380;2023-02-13T10:06:23;64.73;;;33.10;;
8279;SDS011;8335;42.646;23.380;2023-02-13T10:09:01;63.30;;;31.43;;
8279;SDS011;8335;42.646;23.380;2023-02-13T10:11:45;69.03;;;34.60;;
8279;SDS011;8335;42.646;23.380;2023-02-13T10:14:22;65.47;;;32.90;;
8279;SDS011;8335;42.646;23.380;2023-02-13T10:16:54;62.33;;;32.23;;
8279;SDS011;8335;42.646;23.380;2023-02-13T10:19:30;69.13;;;34.40;;
8279;SDS011;8335;42.646;23.380;2023-02-13T10:22:03;66.10;;;33.63;;
8279;SDS011;8335;42.646;23.380;2023-02-13T10:24:33;68.60;;;33.20;;
8279;SDS011;8335;42.646;23.380;2023-02-13T10:27:08;68.30;;;33.17;;
8279;SDS011;8335;42.646;23.380;2023-02-13T10:29:47;62.37;;;32.47;;
8279;SDS011;8335;42.646;23.380;2023-02-13T10:32:37;62.67;;;32.80;;
8279;SDS011;8335;42.646;23.380;2023-02-13T10:35:17;67.53;;;34.57;;
8279;SDS011;8335;42.646;23.380;2023-02-13T10:37:47;71.60;;;33.40;;
8279;SDS011;8335;42.646;23.380;2023-02-13T10:40:17;61.67;;;31.87;;
8279;SDS011;8335;42.646;23.380;2023-02-13T10:42:45;59.43;;;32.17;;
8279;SDS011;8335;42.646;23.380;2023-02-13T10:45:27;52.40;;;28.47;;
8279;SDS011;8335;42.646;23.380;2023-02-13T10:48:11;58.40;;;29.33;;
8279;SDS011;8335;42.646;23.380;2023-02-13T10:50:52;55.20;;;30.83;;
8279;SDS011;8335;42.646;23.380;2023-02-13T10:53:27;55.30;;;29.60;;
8279;SDS011;8335;42.646;23.380;2023-02-13T10:56:06;59.20;;;30.90;;
8279;SDS011;8335;42.646;23.380;2023-02-13T10:58:46;62.20;;;32.17;;
8279;SDS011;8335;42.646;23.380;2023-02-13T11:01:24;60.33;;;31.97;;
8279;SDS011;8335;42.646;23.380;2023-02-13T11:04:00;59.17;;;31.93;;
8279;SDS011;8335;42.646;23.380;2023-02-13T11:06:32;55.47;;;30.33;;
8279;SDS011;8335;42.646;23.380;2023-02-13T11:09:03;60.53;;;30.60;;
8279;SDS011;8335;42.646;23.380;2023-02-13T11:11:33;52.83;;;29.13;;
8279;SDS011;8335;42.646;23.380;2023-02-13T11:14:11;48.50;;;27.17;;
8279;SDS011;8335;42.646;23.380;2023-02-13T11:16:48;55.37;;;30.03;;
8279;SDS011;8335;42.646;23.380;2023-02-13T11:19:19;58.67;;;29.57;;
8279;SDS011;8335;42.646;23.380;2023-02-13T11:21:53;57.03;;;29.50;;
8279;SDS011;8335;42.646;23.380;2023-02-13T11:24:23;52.13;;;28.53;;
8279;SDS011;8335;42.646;23.380;2023-02-13T11:26:53;47.30;;;27.10;;
8279;SDS011;8335;42.646;23.380;2023-02-13T11:29:24;53.83;;;28.70;;
8279;SDS011;8335;42.646;23.380;2023-02-13T11:32:03;50.53;;;26.83;;
8279;SDS011;8335;42.646;23.380;2023-02-13T11:34:48;45.47;;;25.40;;
8279;SDS011;8335;42.646;23.380;2023-02-13T11:37:21;45.97;;;25.13;;
8279;SDS011;8335;42.646;23.380;2023-02-13T11:39:51;45.77;;;24.40;;
8279;SDS011;8335;42.646;23.380;2023-02-13T11:42:20;41.97;;;22.33;;
8279;SDS011;8335;42.646;23.380;2023-02-13T11:44:51;46.30;;;23.57;;
8279;SDS011;8335;42.646;23.380;2023-02-13T11:47:28;39.97;;;22.10;;
8279;SDS011;8335;42.646;23.380;2023-02-13T11:49:57;38.03;;;22.47;;
8279;SDS011;8335;42.646;23.380;2023-02-13T11:52:27;43.87;;;22.10;;
8279;SDS011;8335;42.646;23.380;2023-02-13T11:54:56;39.10;;;21.97;;
8279;SDS011;8335;42.646;23.380;2023-02-13T11:57:27;39.20;;;21.33;;
8279;SDS011;8335;42.646;23.380;2023-02-13T11:59:56;32.23;;;18.53;;
8279;SDS011;8335;42.646;23.380;2023-02-13T12:02:24;38.30;;;21.53;;
8279;SDS011;8335;42.646;23.380;2023-02-13T12:04:53;41.63;;;22.10;;
8279;SDS011;8335;42.646;23.380;2023-02-13T12:07:41;41.30;;;21.17;;
8279;SDS011;8335;42.646;23.380;2023-02-13T12:10:15;39.07;;;20.47;;
8279;SDS011;8335;42.646;23.380;2023-02-13T12:12:49;39.63;;;21.33;;
8279;SDS011;8335;42.646;23.380;2023-02-13T12:15:20;35.33;;;19.27;;
8279;SDS011;8335;42.646;23.380;2023-02-13T12:17:52;37.77;;;21.23;;
8279;SDS011;8335;42.646;23.380;2023-02-13T12:20:28;38.80;;;21.23;;
8279;SDS011;8335;42.646;23.380;2023-02-13T12:23:08;37.17;;;20.50;;
8279;SDS011;8335;42.646;23.380;2023-02-13T12:25:47;40.17;;;21.97;;
8279;SDS011;8335;42.646;23.380;2023-02-13T12:28:39;41.20;;;21.97;;
8279;SDS011;8335;42.646;23.380;2023-02-13T12:31:26;32.37;;;18.83;;
8279;SDS011;8335;42.646;23.380;2023-02-13T12:34:21;35.60;;;17.23;;
8279;SDS011;8335;42.646;23.380;2023-02-13T12:37:03;32.33;;;17.13;;
8279;SDS011;8335;42.646;23.380;2023-02-13T12:39:47;32.03;;;16.77;;
8279;SDS011;8335;42.646;23.380;2023-02-13T12:42:25;36.33;;;19.60;;
8279;SDS011;8335;42.646;23.380;2023-02-13T12:45:09;35.67;;;18.87;;
8279;SDS011;8335;42.646;23.380;2023-02-13T12:47:59;37.03;;;19.30;;
8279;SDS011;8335;42.646;23.380;2023-02-13T12:50:37;39.47;;;17.00;;
8279;SDS011;8335;42.646;23.380;2023-02-13T12:53:40;37.13;;;17.43;;
8279;SDS011;8335;42.646;23.380;2023-02-13T12:56:22;27.30;;;15.33;;
8279;SDS011;8335;42.646;23.380;2023-02-13T12:59:04;31.27;;;16.40;;
8279;SDS011;8335;42.646;23.380;2023-02-13T13:01:50;30.20;;;14.93;;
8279;SDS011;8335;42.646;23.380;2023-02-13T13:04:36;25.50;;;14.03;;
8279;SDS011;8335;42.646;23.380;2023-02-13T13:07:25;24.50;;;13.73;;
8279;SDS011;8335;42.646;23.380;2023-02-13T13:10:17;24.17;;;12.60;;
8279;SDS011;8335;42.646;23.380;2023-02-13T13:12:58;24.67;;;13.50;;
8279;SDS011;8335;42.646;23.380;2023-02-13T13:15:31;27.57;;;14.27;;
8279;SDS011;8335;42.646;23.380;2023-02-13T13:18:07;24.67;;;14.23;;
8279;SDS011;8335;42.646;23.380;2023-02-13T13:20:50;29.07;;;13.67;;
8279;SDS011;8335;42.646;23.380;2023-02-13T13:23:21;23.07;;;12.73;;
8279;SDS011;8335;42.646;23.380;2023-02-13T13:25:56;26.50;;;13.67;;
8279;SDS011;8335;42.646;23.380;2023-02-13T13:28:31;24.33;;;13.47;;
8279;SDS011;8335;42.646;23.380;2023-02-13T13:31:02;26.40;;;14.17;;
8279;SDS011;8335;42.646;23.380;2023-02-13T13:33:30;26.50;;;13.23;;
8279;SDS011;8335;42.646;23.380;2023-02-13T13:36:00;23.37;;;12.93;;
8279;SDS011;8335;42.646;23.380;2023-02-13T13:38:37;27.70;;;14.27;;
8279;SDS011;8335;42.646;23.380;2023-02-13T13:41:11;25.13;;;14.27;;
8279;SDS011;8335;42.646;23.380;2023-02-13T13:43:47;24.07;;;13.63;;
8279;SDS011;8335;42.646;23.380;2023-02-13T13:46:26;28.57;;;14.87;;
8279;SDS011;8335;42.646;23.380;2023-02-13T13:49:05;25.47;;;13.53;;
8279;SDS011;8335;42.646;23.380;2023-02-13T13:51:43;26.40;;;14.20;;
8279;SDS011;8335;42.646;23.380;2023-02-13T13:54:32;27.00;;;14.13;;
8279;SDS011;8335;42.646;23.380;2023-02-13T13:57:09;28.07;;;13.17;;
8279;SDS011;8335;42.646;23.380;2023-02-13T14:02:50;23.53;;;13.07;;
8279;SDS011;8335;42.646;23.380;2023-02-13T14:11:27;22.83;;;13.17;;
8279;SDS011;8335;42.646;23.380;2023-02-13T14:13:59;22.97;;;12.97;;
8279;SDS011;8335;42.646;23.380;2023-02-13T14:16:36;25.47;;;14.07;;
8279;SDS011;8335;42.646;23.380;2023-02-13T14:19:21;24.70;;;13.33;;
8279;SDS011;8335;42.646;23.380;2023-02-13T14:21:50;28.77;;;15.13;;
8279;SDS011;8335;42.646;23.380;2023-02-13T14:24:17;25.87;;;12.97;;
8279;SDS011;8335;42.646;23.380;2023-02-13T14:26:48;24.47;;;13.63;;
8279;SDS011;8335;42.646;23.380;2023-02-13T14:29:24;24.00;;;13.60;;
8279;SDS011;8335;42.646;23.380;2023-02-13T14:31:59;26.93;;;14.23;;
8279;SDS011;8335;42.646;23.380;2023-02-13T14:34:52;26.97;;;13.90;;
8279;SDS011;8335;42.646;23.380;2023-02-13T14:37:24;26.30;;;13.93;;
8279;SDS011;8335;42.646;23.380;2023-02-13T14:45:54;26.73;;;14.50;;
8279;SDS011;8335;42.646;23.380;2023-02-13T14:48:32;28.00;;;15.00;;
8279;SDS011;8335;42.646;23.380;2023-02-13T14:51:06;29.00;;;14.73;;
8279;SDS011;8335;42.646;23.380;2023-02-13T14:53:46;28.03;;;15.13;;
8279;SDS011;8335;42.646;23.380;2023-02-13T14:56:17;28.80;;;15.43;;
8279;SDS011;8335;42.646;23.380;2023-02-13T14:58:47;24.33;;;14.47;;
8279;SDS011;8335;42.646;23.380;2023-02-13T15:01:22;34.93;;;15.03;;
8279;SDS011;8335;42.646;23.380;2023-02-13T15:03:56;26.80;;;14.67;;
8279;SDS011;8335;42.646;23.380;2023-02-13T15:06:32;26.80;;;14.47;;
8279;SDS011;8335;42.646;23.380;2023-02-13T15:09:02;27.37;;;15.73;;
8279;SDS011;8335;42.646;23.380;2023-02-13T15:11:32;31.33;;;16.50;;
8279;SDS011;8335;42.646;23.380;2023-02-13T15:14:14;25.63;;;14.80;;
8279;SDS011;8335;42.646;23.380;2023-02-13T15:16:42;56.33;;;17.30;;
8279;SDS011;8335;42.646;23.380;2023-02-13T15:19:13;30.07;;;14.77;;
8279;SDS011;8335;42.646;23.380;2023-02-13T15:21:46;27.10;;;15.47;;
8279;SDS011;8335;42.646;23.380;2023-02-13T15:24:16;25.00;;;14.10;;
8279;SDS011;8335;42.646;23.380;2023-02-13T15:26:52;31.07;;;15.37;;